Time;durP1;ratioP1;P1;durP2;ratioP2;P2;SDS_P1;SDS_P2;PMS_P1;PMS_P2;Temp;Humidity;BMP_temperature;BMP_pressure;BME280_temperature;BME280_humidity;BME280_pressure;Samples;Min_cycle;Max_cycle;Signal;HPM_P1;HPM_P2
2023/07/25 00:00:37;;;;;;;11.95;5.70;;;;;;;30.93;49.11;97710.50;2089552;28;20476;-49
2023/07/25 00:01:39;;;;;;;11.18;5.43;;;;;;;30.96;48.91;97689.91;2087428;28;20282;-54
2023/07/25 00:02:39;;;;;;;14.95;5.43;;;;;;;30.96;49.02;97668.00;2089771;28;20167;-49
2023/07/25 00:03:41;;;;;;;13.57;5.25;;;;;;;30.89;48.87;97666.47;2085601;28;20056;-51
2023/07/25 00:04:43;;;;;;;12.50;4.90;;;;;;;30.92;49.19;97663.16;2087139;28;20351;-49
2023/07/25 00:05:45;;;;;;;13.98;5.38;;;;;;;30.92;48.92;97668.63;2079794;28;20056;-54
2023/07/25 00:06:45;;;;;;;15.35;5.38;;;;;;;30.90;48.92;97681.81;2083604;28;20461;-52
2023/07/25 00:07:47;;;;;;;13.13;4.22;;;;;;;30.89;49.32;97684.84;2085535;28;20061;-50
2023/07/25 00:08:48;;;;;;;11.40;5.18;;;;;;;30.90;49.13;97672.78;2087129;28;20053;-52
2023/07/25 00:09:50;;;;;;;13.38;5.40;;;;;;;30.90;49.36;97679.06;2086752;28;20048;-53
2023/07/25 00:10:51;;;;;;;11.35;4.80;;;;;;;30.90;49.01;97673.59;2087427;28;20049;-53
2023/07/25 00:11:52;;;;;;;16.50;5.85;;;;;;;30.90;49.40;97675.53;2085739;28;20514;-49
2023/07/25 00:12:55;;;;;;;10.05;5.15;;;;;;;30.88;48.94;97673.09;2085589;28;20127;-50
2023/07/25 00:13:56;;;;;;;13.13;5.22;;;;;;;30.87;49.03;97665.16;2085657;28;20557;-52
2023/07/25 00:14:57;;;;;;;11.32;5.13;;;;;;;30.88;48.92;97664.88;2086242;28;20559;-53
2023/07/25 00:15:59;;;;;;;10.65;4.88;;;;;;;30.90;48.99;97668.13;2087507;28;20633;-49
2023/07/25 00:16:59;;;;;;;11.85;5.55;;;;;;;30.89;48.85;97669.22;2084505;28;20148;-51
2023/07/25 00:18:01;;;;;;;14.18;4.68;;;;;;;30.89;48.73;97660.19;2087465;28;20044;-54
2023/07/25 00:19:02;;;;;;;16.25;5.75;;;;;;;30.88;49.23;97650.38;2086958;28;20120;-53
2023/07/25 00:20:06;;;;;;;12.95;4.95;;;;;;;30.88;48.79;97655.84;2087169;28;20044;-52
2023/07/25 00:21:07;;;;;;;12.02;5.20;;;;;;;30.88;48.74;97653.91;2086195;28;20048;-52
2023/07/25 00:22:09;;;;;;;15.07;4.60;;;;;;;30.89;48.84;97652.78;2082760;28;20137;-52
2023/07/25 00:23:09;;;;;;;14.68;4.80;;;;;;;30.89;48.59;97650.06;2080497;28;20379;-51
2023/07/25 00:24:11;;;;;;;9.68;4.85;;;;;;;30.86;48.94;97647.13;2086486;28;20126;-52
2023/07/25 00:25:12;;;;;;;12.38;5.50;;;;;;;30.90;49.19;97650.88;2084982;28;20131;-51
2023/07/25 00:26:13;;;;;;;11.68;5.60;;;;;;;30.89;48.62;97651.97;2086607;28;20445;-58
2023/07/25 00:27:14;;;;;;;12.23;4.60;;;;;;;30.88;48.40;97648.44;2086543;28;20044;-52
2023/07/25 00:28:16;;;;;;;11.10;4.63;;;;;;;30.86;48.46;97647.94;2087295;28;20094;-54
2023/07/25 00:29:17;;;;;;;10.43;4.53;;;;;;;30.86;48.31;97641.66;2087594;28;20601;-54
2023/07/25 00:30:17;;;;;;;11.40;4.57;;;;;;;30.85;48.61;97640.84;2085507;28;20052;-52
2023/07/25 00:31:19;;;;;;;8.25;5.00;;;;;;;30.87;48.43;97633.16;2085080;28;20752;-53
2023/07/25 00:32:20;;;;;;;10.90;4.95;;;;;;;30.85;48.95;97629.91;2088922;28;20581;-54
2023/07/25 00:33:21;;;;;;;12.00;4.93;;;;;;;30.87;48.44;97632.31;2083075;28;20049;-53
2023/07/25 00:34:22;;;;;;;14.20;5.22;;;;;;;30.86;48.81;97625.22;2089959;28;20087;-52
2023/07/25 00:35:25;;;;;;;12.70;5.03;;;;;;;30.86;48.89;97617.81;2088978;28;20049;-53
2023/07/25 00:36:26;;;;;;;10.60;4.28;;;;;;;30.86;48.36;97620.56;2090381;28;20052;-54
2023/07/25 00:37:29;;;;;;;11.23;5.05;;;;;;;30.85;48.48;97618.16;2084872;28;20060;-52
2023/07/25 00:38:29;;;;;;;11.90;4.18;;;;;;;30.84;49.18;97621.97;2075795;28;20053;-50
2023/07/25 00:39:31;;;;;;;15.07;5.13;;;;;;;30.84;48.91;97622.81;2084980;28;20055;-51
2023/07/25 00:40:37;;;;;;;14.40;4.55;;;;;;;30.85;48.65;97626.34;2085229;28;20799;-52
2023/07/25 00:41:38;;;;;;;10.48;4.82;;;;;;;30.85;48.33;97626.34;2084678;28;20053;-51
2023/07/25 00:42:39;;;;;;;7.90;4.40;;;;;;;30.86;48.48;97631.50;2085968;28;20056;-53
2023/07/25 00:43:41;;;;;;;14.75;5.78;;;;;;;30.84;48.54;97625.56;2086594;28;20048;-54
2023/07/25 00:44:42;;;;;;;10.52;4.15;;;;;;;30.86;48.54;97630.72;2085563;28;20041;-53
2023/07/25 00:45:44;;;;;;;14.25;5.13;;;;;;;30.84;48.12;97628.28;2086346;28;20041;-53
2023/07/25 00:46:45;;;;;;;8.48;4.28;;;;;;;30.84;48.50;97638.41;2084495;28;20323;-54
2023/07/25 00:47:46;;;;;;;7.38;4.20;;;;;;;30.84;48.51;97631.03;2085137;28;20061;-50
2023/07/25 00:48:47;;;;;;;10.93;4.68;;;;;;;30.82;48.32;97622.31;2085711;28;20056;-53
2023/07/25 00:49:50;;;;;;;10.65;4.65;;;;;;;30.81;48.54;97612.44;2084188;28;20679;-50
2023/07/25 00:50:52;;;;;;;11.15;5.32;;;;;;;30.83;48.39;97621.19;2085849;28;20101;-52
2023/07/25 00:51:53;;;;;;;8.93;4.38;;;;;;;30.85;48.58;97626.34;2086677;28;20057;-54
2023/07/25 00:52:57;;;;;;;9.00;4.90;;;;;;;30.86;48.53;97627.97;2087103;28;20052;-51
2023/07/25 00:53:58;;;;;;;11.18;5.22;;;;;;;30.84;48.67;97627.47;2087542;28;20102;-52
2023/07/25 00:55:00;;;;;;;8.27;4.90;;;;;;;30.84;48.98;97624.72;2082599;28;20695;-54
2023/07/25 00:56:01;;;;;;;11.18;4.72;;;;;;;30.82;49.00;97630.53;2085968;28;20767;-53
2023/07/25 00:57:03;;;;;;;11.50;4.75;;;;;;;30.81;48.91;97634.34;2078930;28;20075;-52
2023/07/25 00:58:03;;;;;;;11.43;6.05;;;;;;;30.84;48.85;97632.94;2081651;28;20105;-51
2023/07/25 00:59:05;;;;;;;10.85;5.00;;;;;;;30.85;49.33;97651.81;2078927;28;20049;-52
2023/07/25 01:00:07;;;;;;;9.48;5.15;;;;;;;30.83;49.23;97681.41;2077986;28;20045;-53
2023/07/25 01:01:09;;;;;;;9.43;4.55;;;;;;;30.84;49.18;97713.16;2082233;28;20044;-53
2023/07/25 01:02:11;;;;;;;10.52;5.57;;;;;;;30.85;48.86;97744.06;2080224;28;20065;-53
2023/07/25 01:03:14;;;;;;;12.32;5.28;;;;;;;30.80;49.71;97772.38;2079055;28;20041;-54
2023/07/25 01:04:14;;;;;;;13.07;4.85;;;;;;;30.77;49.52;97770.22;2079753;28;20106;-60
2023/07/25 01:05:16;;;;;;;15.27;6.20;;;;;;;30.80;49.75;97761.41;2080118;28;20044;-54
2023/07/25 01:06:19;;;;;;;14.88;5.20;;;;;;;30.82;49.49;97761.94;2079430;28;20132;-54
2023/07/25 01:07:22;;;;;;;11.45;4.95;;;;;;;30.84;49.75;97756.13;2087164;28;20048;-54
2023/07/25 01:08:22;;;;;;;10.45;5.75;;;;;;;30.87;49.23;97745.41;2087723;28;20060;-53
2023/07/25 01:09:38;;;;;;;11.55;4.90;;;;;;;30.85;49.49;97750.34;2086090;28;20304;-52
2023/07/25 01:10:38;;;;;;;14.57;5.75;;;;;;;30.86;49.52;97751.97;2085007;28;20091;-52
2023/07/25 01:11:40;;;;;;;15.15;5.53;;;;;;;30.86;49.66;97745.69;2086331;28;20411;-52
2023/07/25 01:12:41;;;;;;;20.65;5.70;;;;;;;30.87;49.88;97748.13;2080840;28;20076;-53
2023/07/25 01:13:43;;;;;;;12.63;5.72;;;;;;;30.88;49.87;97755.22;2084623;28;20045;-54
2023/07/25 01:14:44;;;;;;;15.82;4.72;;;;;;;30.89;50.06;97750.56;2086670;28;20094;-54
2023/07/25 01:15:46;;;;;;;13.75;5.35;;;;;;;30.88;49.70;97744.28;2086578;28;20060;-51
2023/07/25 01:16:46;;;;;;;13.27;5.45;;;;;;;30.84;50.02;97737.81;2086578;28;20488;-52
2023/07/25 01:17:48;;;;;;;13.07;5.28;;;;;;;30.86;50.10;97729.25;2086183;28;20056;-55
2023/07/25 01:18:50;;;;;;;18.83;6.30;;;;;;;30.87;49.85;97726.22;2087055;28;20416;-51
2023/07/25 01:19:53;;;;;;;12.18;5.30;;;;;;;30.86;49.74;97724.59;2086664;28;20140;-53
2023/07/25 01:20:54;;;;;;;20.98;5.25;;;;;;;30.85;50.06;97717.50;2084820;28;20712;-52
2023/07/25 01:21:57;;;;;;;14.93;6.25;;;;;;;30.86;49.88;97713.63;2084063;28;20511;-54
2023/07/25 01:23:01;;;;;;;14.70;5.97;;;;;;;30.86;49.91;97701.88;2086917;28;20060;-49
2023/07/25 01:24:03;;;;;;;9.68;5.60;;;;;;;30.85;49.63;97698.34;2087717;28;20097;-53
2023/07/25 01:25:07;;;;;;;15.90;6.00;;;;;;;30.85;49.38;97700.28;2086403;28;20521;-52
2023/07/25 01:26:08;;;;;;;20.02;6.20;;;;;;;30.86;49.37;97696.41;2087193;28;20040;-53
2023/07/25 01:27:10;;;;;;;10.70;5.25;;;;;;;30.85;49.67;97692.88;2085067;28;20097;-54
2023/07/25 01:28:10;;;;;;;14.32;5.88;;;;;;;30.84;49.30;97698.63;2086664;28;20403;-54
2023/07/25 01:29:12;;;;;;;13.18;5.05;;;;;;;30.82;49.65;97704.44;2087256;28;20051;-52
2023/07/25 01:30:13;;;;;;;11.98;4.85;;;;;;;30.82;49.89;97707.19;2086853;28;20158;-54
2023/07/25 01:31:14;;;;;;;11.00;5.72;;;;;;;30.83;49.23;97713.44;2078352;28;20052;-54
2023/07/25 01:32:15;;;;;;;12.05;5.10;;;;;;;30.84;49.18;97713.16;2085179;28;20446;-53
2023/07/25 01:33:17;;;;;;;13.82;4.97;;;;;;;30.83;49.75;97708.78;2087374;28;20048;-52
2023/07/25 01:34:18;;;;;;;11.00;5.93;;;;;;;30.83;49.55;97713.44;2088576;28;20135;-53
2023/07/25 01:35:19;;;;;;;13.90;5.32;;;;;;;30.84;49.70;97704.94;2087585;28;20055;-54
2023/07/25 01:36:20;;;;;;;11.00;5.15;;;;;;;30.84;49.39;97699.47;2086903;28;20041;-53
2023/07/25 01:37:22;;;;;;;13.90;5.85;;;;;;;30.83;49.47;97686.88;2086626;28;20059;-53
2023/07/25 01:38:23;;;;;;;17.27;5.47;;;;;;;30.83;49.42;97689.63;2088951;28;20304;-54
2023/07/25 01:39:26;;;;;;;12.23;5.15;;;;;;;30.84;49.32;97691.25;2089663;28;20048;-52
2023/07/25 01:40:26;;;;;;;12.65;5.03;;;;;;;30.81;48.79;97705.53;2086330;28;20093;-52
2023/07/25 01:41:28;;;;;;;15.38;7.13;;;;;;;30.80;49.15;97716.81;2086842;28;20095;-52
2023/07/25 01:42:29;;;;;;;13.35;6.30;;;;;;;30.82;49.67;97709.91;2087221;28;20080;-54
2023/07/25 01:43:31;;;;;;;11.13;5.53;;;;;;;30.78;49.41;97714.34;2089009;28;20045;-53
2023/07/25 01:44:31;;;;;;;11.52;5.28;;;;;;;30.80;49.89;97709.41;2087906;28;20510;-51
2023/07/25 01:45:33;;;;;;;12.73;5.55;;;;;;;30.81;50.22;97702.78;2089156;28;20297;-52
2023/07/25 01:46:34;;;;;;;15.77;5.30;;;;;;;30.83;49.86;97686.06;2088371;28;20045;-52
2023/07/25 01:47:35;;;;;;;11.10;5.20;;;;;;;30.85;49.88;97670.97;2087081;28;20049;-54
2023/07/25 01:48:36;;;;;;;12.05;5.57;;;;;;;30.83;49.68;97654.03;2087009;28;20056;-54
2023/07/25 01:49:38;;;;;;;19.33;5.47;;;;;;;30.85;49.82;97646.31;2081942;28;20052;-54
2023/07/25 01:50:39;;;;;;;11.00;5.47;;;;;;;30.82;49.98;97627.78;2087585;28;20044;-54
2023/07/25 01:51:39;;;;;;;19.05;5.70;;;;;;;30.81;49.64;97626.16;2089896;28;20048;-53
2023/07/25 01:52:41;;;;;;;10.50;5.10;;;;;;;30.80;49.95;97624.53;2086473;28;20040;-54
2023/07/25 01:53:42;;;;;;;13.25;5.88;;;;;;;30.80;49.20;97615.53;2086638;28;20529;-54
2023/07/25 01:54:45;;;;;;;11.27;5.45;;;;;;;30.79;48.98;97620.16;2081590;28;20040;-53
2023/07/25 01:55:45;;;;;;;10.70;4.93;;;;;;;30.79;48.90;97625.63;2082888;28;20106;-52
2023/07/25 01:56:47;;;;;;;8.88;5.50;;;;;;;30.80;49.56;97632.75;2079049;28;20446;-54
2023/07/25 01:57:48;;;;;;;12.35;6.13;;;;;;;30.80;49.40;97671.06;2077950;28;20041;-54
2023/07/25 01:58:50;;;;;;;9.73;5.60;;;;;;;30.79;49.70;97707.75;2080660;28;20388;-53
2023/07/25 01:59:51;;;;;;;14.20;5.47;;;;;;;30.77;49.61;97742.84;2080300;28;20094;-53
2023/07/25 02:00:56;;;;;;;10.30;5.47;;;;;;;30.77;50.05;97781.16;2078291;28;20143;-53
2023/07/25 02:01:58;;;;;;;14.30;5.75;;;;;;;30.77;49.74;97796.78;2083437;28;20514;-53
2023/07/25 02:02:58;;;;;;;13.55;5.22;;;;;;;30.76;50.19;97800.59;2078970;28;20050;-54
2023/07/25 02:04:00;;;;;;;14.20;5.30;;;;;;;30.72;50.73;97790.28;2079883;28;20098;-52
2023/07/25 02:05:01;;;;;;;12.50;5.72;;;;;;;30.73;50.36;97772.75;2079900;28;20164;-54
2023/07/25 02:06:04;;;;;;;16.45;6.57;;;;;;;30.77;50.70;97747.50;2078231;28;20045;-53
2023/07/25 02:07:05;;;;;;;20.80;5.80;;;;;;;30.79;50.36;97737.06;2084908;28;20510;-52
2023/07/25 02:08:06;;;;;;;21.17;6.43;;;;;;;30.82;50.74;97722.78;2071582;28;21662;-52
2023/07/25 02:09:07;;;;;;;17.15;7.22;;;;;;;30.83;50.25;97718.94;2080241;28;20053;-52
2023/07/25 02:10:10;;;;;;;13.55;5.85;;;;;;;30.83;50.82;97705.25;2079494;28;20543;-53
2023/07/25 02:11:11;;;;;;;14.98;5.32;;;;;;;30.82;50.08;97695.41;2080136;28;20136;-52
2023/07/25 02:12:13;;;;;;;14.05;6.13;;;;;;;30.82;50.12;97671.59;2077679;28;20052;-53
2023/07/25 02:13:13;;;;;;;17.42;5.78;;;;;;;30.77;49.70;97636.06;2079120;28;20458;-52
2023/07/25 02:14:15;;;;;;;16.25;5.20;;;;;;;30.75;49.08;97607.38;2078740;28;20053;-53
2023/07/25 02:15:16;;;;;;;14.55;5.95;;;;;;;30.73;49.17;97588.56;2077244;28;20053;-53
2023/07/25 02:16:18;;;;;;;11.57;5.13;;;;;;;30.69;48.89;97576.59;2079631;28;20158;-53
2023/07/25 02:17:19;;;;;;;8.90;4.57;;;;;;;30.72;49.02;97570.50;2079341;28;20420;-53
2023/07/25 02:18:20;;;;;;;8.18;5.10;;;;;;;30.72;48.91;97575.97;2078890;28;20107;-53
2023/07/25 02:19:21;;;;;;;10.75;4.47;;;;;;;30.71;48.57;97579.84;2079338;28;20100;-51
2023/07/25 02:20:25;;;;;;;9.02;4.00;;;;;;;30.72;49.32;97557.59;2078606;28;20135;-50
2023/07/25 02:21:27;;;;;;;12.05;4.57;;;;;;;30.71;48.75;97539.56;2079276;28;20050;-53
2023/07/25 02:22:28;;;;;;;9.80;4.75;;;;;;;30.73;48.74;97555.72;2077425;28;20495;-52
2023/07/25 02:23:29;;;;;;;12.18;5.10;;;;;;;30.73;49.12;97577.59;2079289;28;20057;-53
2023/07/25 02:24:30;;;;;;;14.98;5.43;;;;;;;30.72;49.27;97597.88;2071203;28;20095;-54
2023/07/25 02:25:33;;;;;;;9.60;5.30;;;;;;;30.71;49.30;97608.00;2077388;28;20517;-53
2023/07/25 02:26:35;;;;;;;8.88;4.50;;;;;;;30.72;49.32;97622.50;2078538;28;20586;-53
2023/07/25 02:27:36;;;;;;;12.45;5.70;;;;;;;30.70;49.32;97632.94;2080326;28;20594;-50
2023/07/25 02:28:37;;;;;;;8.95;4.38;;;;;;;30.70;49.50;97639.25;2078508;28;20081;-53
2023/07/25 02:29:39;;;;;;;14.10;5.32;;;;;;;30.72;49.11;97649.88;2080555;28;20051;-53
2023/07/25 02:30:39;;;;;;;13.52;6.15;;;;;;;30.74;49.29;97661.31;2086122;28;20045;-53
2023/07/25 02:31:41;;;;;;;10.07;5.00;;;;;;;30.75;49.31;97682.09;2085395;28;20218;-54
2023/07/25 02:32:42;;;;;;;15.57;4.72;;;;;;;30.78;49.36;97689.69;2087399;28;20098;-51
2023/07/25 02:33:44;;;;;;;16.95;5.93;;;;;;;30.78;49.71;97706.13;2087013;28;20048;-54
2023/07/25 02:34:44;;;;;;;14.32;5.00;;;;;;;30.76;50.21;97702.91;2086479;28;20511;-50
2023/07/25 02:35:46;;;;;;;17.50;6.43;;;;;;;30.71;50.47;97698.34;2086937;28;20057;-52
2023/07/25 02:36:46;;;;;;;13.05;6.72;;;;;;;30.73;50.75;97695.31;2088562;28;20383;-53
2023/07/25 02:37:47;;;;;;;14.07;6.30;;;;;;;30.76;50.72;97691.94;2087559;28;20608;-51
2023/07/25 02:38:49;;;;;;;10.98;5.50;;;;;;;30.77;50.99;97693.56;2085875;28;20055;-53
2023/07/25 02:39:50;;;;;;;15.55;5.78;;;;;;;30.75;51.06;97693.03;2085761;28;20045;-53
2023/07/25 02:40:53;;;;;;;11.77;4.45;;;;;;;30.77;50.99;97685.34;2077345;28;20045;-53
2023/07/25 02:41:53;;;;;;;15.20;5.93;;;;;;;30.77;51.61;97688.09;2080233;28;20716;-54
2023/07/25 02:42:55;;;;;;;20.02;5.47;;;;;;;30.77;51.35;97690.00;2075993;28;20053;-52
2023/07/25 02:43:56;;;;;;;13.27;5.72;;;;;;;30.79;51.46;97701.47;2087510;28;20075;-53
2023/07/25 02:44:58;;;;;;;15.55;5.70;;;;;;;30.81;51.50;97702.00;2087327;28;20049;-54
2023/07/25 02:45:58;;;;;;;19.42;7.07;;;;;;;30.80;51.88;97706.66;2085741;28;20045;-52
2023/07/25 02:47:00;;;;;;;15.73;6.85;;;;;;;30.81;51.68;97667.22;2086365;28;20060;-53
2023/07/25 02:48:01;;;;;;;15.32;6.15;;;;;;;30.79;51.83;97677.66;2088821;28;20049;-54
2023/07/25 02:49:02;;;;;;;22.92;6.75;;;;;;;30.79;52.04;97680.38;2084877;28;20098;-52
2023/07/25 02:50:03;;;;;;;18.38;6.18;;;;;;;30.80;51.88;97689.44;2087237;28;20049;-53
2023/07/25 02:51:05;;;;;;;17.00;5.63;;;;;;;30.79;51.72;97705.03;2087134;28;20654;-53
2023/07/25 02:52:07;;;;;;;15.32;5.55;;;;;;;30.80;51.65;97720.34;2086791;28;20056;-56
2023/07/25 02:53:08;;;;;;;18.83;5.07;;;;;;;30.79;51.47;97740.59;2086520;28;20044;-53
2023/07/25 02:54:09;;;;;;;14.38;5.13;;;;;;;30.80;51.45;97739.50;2085776;28;20048;-51
2023/07/25 02:55:11;;;;;;;21.23;5.63;;;;;;;30.81;51.65;97756.75;2087385;28;20363;-53
2023/07/25 02:56:13;;;;;;;16.35;6.43;;;;;;;30.85;51.48;97752.28;2085323;28;20144;-52
2023/07/25 02:57:15;;;;;;;15.18;7.10;;;;;;;30.82;51.59;97744.69;2087763;28;20052;-51
2023/07/25 02:58:15;;;;;;;20.63;7.80;;;;;;;30.79;52.16;97748.00;2087629;28;20929;-53
2023/07/25 02:59:18;;;;;;;14.77;5.82;;;;;;;30.77;52.25;97770.22;2080487;28;20057;-53
2023/07/25 03:00:18;;;;;;;18.42;5.82;;;;;;;30.78;52.11;97768.28;2084650;28;20060;-51
2023/07/25 03:01:20;;;;;;;19.50;6.82;;;;;;;30.77;52.22;97772.94;2086973;28;20127;-53
2023/07/25 03:02:21;;;;;;;18.65;6.55;;;;;;;30.80;51.71;97755.94;2085987;28;20045;-51
2023/07/25 03:03:23;;;;;;;16.52;6.88;;;;;;;30.78;51.82;97760.06;2085637;28;20049;-51
2023/07/25 03:04:23;;;;;;;21.08;6.57;;;;;;;30.79;51.66;97746.09;2089312;28;20052;-51
2023/07/25 03:05:27;;;;;;;13.55;5.30;;;;;;;30.80;51.67;97753.19;2088795;28;20119;-51
2023/07/25 03:06:28;;;;;;;15.50;6.72;;;;;;;30.81;52.12;97763.03;2088075;28;20076;-54
2023/07/25 03:07:29;;;;;;;17.17;5.32;;;;;;;30.80;51.94;97775.09;2089318;28;20049;-53
2023/07/25 03:08:30;;;;;;;19.67;6.88;;;;;;;30.81;51.78;97773.16;2086069;28;20073;-50
2023/07/25 03:09:32;;;;;;;19.23;5.63;;;;;;;30.83;52.07;97749.03;2086427;28;20404;-51
2023/07/25 03:10:33;;;;;;;19.40;5.13;;;;;;;30.81;52.28;97721.16;2086720;28;20112;-51
2023/07/25 03:11:36;;;;;;;17.63;6.85;;;;;;;30.80;52.12;97689.44;2088163;28;20122;-53
2023/07/25 03:12:37;;;;;;;25.45;6.55;;;;;;;30.79;52.05;97660.41;2086476;28;20048;-51
2023/07/25 03:13:39;;;;;;;14.90;6.85;;;;;;;30.76;52.13;97636.38;2087738;28;20321;-53
2023/07/25 03:14:40;;;;;;;19.77;5.60;;;;;;;30.74;51.85;97623.00;2084333;28;20056;-52
2023/07/25 03:15:42;;;;;;;14.00;7.10;;;;;;;30.74;52.05;97606.59;2079544;28;20045;-52
2023/07/25 03:16:43;;;;;;;15.80;4.93;;;;;;;30.72;51.65;97587.72;2086354;28;20068;-53
2023/07/25 03:17:45;;;;;;;17.92;5.45;;;;;;;30.75;51.82;97580.00;2086792;28;20041;-54
2023/07/25 03:18:46;;;;;;;17.55;5.80;;;;;;;30.73;51.80;97577.59;2086038;28;20502;-54
2023/07/25 03:19:47;;;;;;;18.30;6.05;;;;;;;30.76;51.51;97595.31;2088509;28;20052;-54
2023/07/25 03:20:49;;;;;;;17.38;6.95;;;;;;;30.72;51.56;97608.81;2085197;28;20518;-53
2023/07/25 03:21:50;;;;;;;16.85;5.07;;;;;;;30.72;51.24;97631.50;2083335;28;20041;-52
2023/07/25 03:22:52;;;;;;;18.10;6.28;;;;;;;30.73;51.02;97657.78;2087639;28;20045;-53
2023/07/25 03:23:53;;;;;;;22.33;6.82;;;;;;;30.72;51.27;97678.03;2088969;28;20056;-53
2023/07/25 03:24:53;;;;;;;21.33;6.60;;;;;;;30.73;51.14;97701.59;2088492;28;20510;-54
2023/07/25 03:25:55;;;;;;;12.20;4.43;;;;;;;30.73;51.25;97728.16;2088128;28;20052;-54
2023/07/25 03:26:57;;;;;;;17.20;7.00;;;;;;;30.76;50.74;97752.16;2085601;28;20085;-53
2023/07/25 03:27:59;;;;;;;21.35;5.65;;;;;;;30.76;51.11;97765.03;2083994;28;20102;-54
2023/07/25 03:29:00;;;;;;;20.90;5.63;;;;;;;30.76;50.89;97776.81;2083978;28;20054;-53
2023/07/25 03:30:02;;;;;;;18.88;6.55;;;;;;;30.76;51.29;97786.91;2087922;28;20048;-53
2023/07/25 03:31:04;;;;;;;16.45;5.60;;;;;;;30.75;51.32;97777.91;2088657;28;20083;-53
2023/07/25 03:32:06;;;;;;;14.55;5.18;;;;;;;30.71;51.47;97787.84;2085741;28;20098;-50
2023/07/25 03:33:07;;;;;;;15.73;5.85;;;;;;;30.73;50.96;97804.78;2079137;28;20468;-54
2023/07/25 03:34:09;;;;;;;15.38;5.55;;;;;;;30.74;50.86;97792.72;2087463;28;20117;-52
2023/07/25 03:35:10;;;;;;;17.92;6.35;;;;;;;30.75;51.36;97777.09;2087073;28;20052;-51
2023/07/25 03:36:12;;;;;;;14.73;5.85;;;;;;;30.73;51.25;97763.72;2087372;28;20051;-52
2023/07/25 03:37:12;;;;;;;11.43;4.95;;;;;;;30.72;51.23;97740.19;2089270;28;20665;-53
2023/07/25 03:38:14;;;;;;;11.15;4.72;;;;;;;30.74;50.81;97710.59;2087523;28;20048;-53
2023/07/25 03:39:15;;;;;;;16.60;6.28;;;;;;;30.72;50.54;97688.19;2086193;28;20114;-53
2023/07/25 03:40:17;;;;;;;11.70;5.07;;;;;;;30.69;50.17;97664.16;2085649;28;20457;-54
2023/07/25 03:41:17;;;;;;;10.30;4.93;;;;;;;30.68;50.71;97651.63;2085604;28;20052;-53
2023/07/25 03:42:21;;;;;;;11.38;4.85;;;;;;;30.67;49.99;97648.06;2089649;28;20062;-54
2023/07/25 03:43:21;;;;;;;14.85;5.53;;;;;;;30.69;50.16;97653.22;2088195;28;20139;-52
2023/07/25 03:44:23;;;;;;;17.10;4.75;;;;;;;30.69;49.85;97661.44;2084958;28;20053;-50
2023/07/25 03:45:24;;;;;;;12.95;5.53;;;;;;;30.68;49.89;97665.28;2085012;28;20095;-53
2023/07/25 03:46:26;;;;;;;14.73;4.78;;;;;;;30.68;50.05;97665.28;2087766;28;20060;-52
2023/07/25 03:47:27;;;;;;;10.20;3.97;;;;;;;30.67;49.75;97678.19;2085593;28;20048;-53
2023/07/25 03:48:28;;;;;;;10.93;4.68;;;;;;;30.68;49.69;97700.88;2087722;28;20045;-53
2023/07/25 03:49:29;;;;;;;11.75;5.25;;;;;;;30.68;49.71;97720.03;2085922;28;20506;-53
2023/07/25 03:50:31;;;;;;;17.00;5.32;;;;;;;30.68;49.63;97736.47;2082385;28;20053;-53
2023/07/25 03:51:33;;;;;;;9.98;5.00;;;;;;;30.68;50.29;97750.16;2087574;28;20667;-50
2023/07/25 03:52:35;;;;;;;10.95;6.03;;;;;;;30.69;50.37;97768.19;2088214;28;20260;-53
2023/07/25 03:53:36;;;;;;;13.57;5.82;;;;;;;30.71;50.24;97760.47;2085144;28;20076;-53
2023/07/25 03:54:38;;;;;;;19.15;5.40;;;;;;;30.68;51.05;97761.09;2087953;28;20509;-54
2023/07/25 03:55:39;;;;;;;11.43;5.03;;;;;;;30.66;51.17;97755.09;2085584;28;20495;-53
2023/07/25 03:56:40;;;;;;;11.70;5.38;;;;;;;30.70;51.25;97762.41;2087856;28;20045;-52
2023/07/25 03:57:43;;;;;;;16.60;6.63;;;;;;;30.74;51.29;97762.59;2087272;28;20151;-53
2023/07/25 03:58:44;;;;;;;17.52;6.18;;;;;;;30.73;51.37;97759.06;2087899;28;20049;-52
2023/07/25 03:59:45;;;;;;;15.60;5.13;;;;;;;30.73;51.76;97750.03;2085171;28;20068;-53
2023/07/25 04:00:47;;;;;;;11.32;5.43;;;;;;;30.76;51.68;97729.44;2087096;28;20431;-50
2023/07/25 04:01:48;;;;;;;19.13;6.03;;;;;;;30.73;51.85;97687.09;2089192;28;20049;-52
2023/07/25 04:02:49;;;;;;;18.40;5.43;;;;;;;30.71;51.80;97661.94;2087280;28;20106;-53
2023/07/25 04:03:50;;;;;;;23.77;6.18;;;;;;;30.69;51.98;97650.47;2085274;28;20132;-53
2023/07/25 04:04:52;;;;;;;19.65;6.50;;;;;;;30.69;51.57;97640.34;2086757;28;20075;-53
2023/07/25 04:05:53;;;;;;;15.60;5.75;;;;;;;30.68;51.67;97644.22;2089780;28;20057;-52
2023/07/25 04:06:55;;;;;;;13.27;6.55;;;;;;;30.68;52.00;97646.94;2086566;28;20241;-54
2023/07/25 04:07:56;;;;;;;12.52;5.47;;;;;;;30.71;51.91;97656.47;2081484;28;20048;-51
2023/07/25 04:08:56;;;;;;;15.10;5.93;;;;;;;30.70;51.99;97655.66;2085611;28;20049;-53
2023/07/25 04:09:58;;;;;;;15.75;5.47;;;;;;;30.71;51.79;97667.41;2085351;28;20364;-54
2023/07/25 04:10:59;;;;;;;19.38;7.43;;;;;;;30.72;51.88;97671.75;2085533;28;20130;-51
2023/07/25 04:12:01;;;;;;;12.30;5.05;;;;;;;30.72;52.30;97679.97;2087069;28;20053;-54
2023/07/25 04:13:03;;;;;;;9.77;5.00;;;;;;;30.71;52.28;97695.59;2088270;28;20060;-51
2023/07/25 04:14:04;;;;;;;15.15;6.07;;;;;;;30.69;52.21;97700.56;2087404;28;22029;-53
2023/07/25 04:15:06;;;;;;;20.05;6.13;;;;;;;30.71;52.42;97703.00;2085962;28;20049;-54
2023/07/25 04:16:08;;;;;;;11.38;5.55;;;;;;;30.70;52.30;97715.88;2086041;28;20055;-54
2023/07/25 04:17:09;;;;;;;21.92;5.75;;;;;;;30.70;52.52;97724.09;2080688;28;20064;-54
2023/07/25 04:18:11;;;;;;;18.23;5.93;;;;;;;30.70;52.45;97742.41;2076754;28;20053;-52
2023/07/25 04:19:11;;;;;;;18.00;6.45;;;;;;;30.70;52.09;97748.72;2082029;28;20603;-52
2023/07/25 04:20:13;;;;;;;14.15;5.57;;;;;;;30.72;52.24;97753.88;2080674;28;20045;-54
2023/07/25 04:21:14;;;;;;;15.90;6.50;;;;;;;30.70;51.96;97754.19;2080453;28;20619;-53
2023/07/25 04:22:16;;;;;;;16.52;5.78;;;;;;;30.70;52.35;97764.31;2087287;28;20048;-55
2023/07/25 04:23:17;;;;;;;20.52;6.40;;;;;;;30.68;52.03;97770.13;2087981;28;20041;-53
2023/07/25 04:24:17;;;;;;;14.35;6.13;;;;;;;30.67;52.30;97771.25;2090549;28;20090;-51
2023/07/25 04:25:19;;;;;;;16.75;5.60;;;;;;;30.69;52.22;97770.91;2089870;28;20526;-53
2023/07/25 04:26:20;;;;;;;16.30;5.47;;;;;;;30.71;52.06;97777.72;2079229;28;20052;-52
2023/07/25 04:27:22;;;;;;;18.88;5.43;;;;;;;30.70;52.15;97797.16;2088575;28;20048;-54
2023/07/25 04:28:24;;;;;;;14.13;5.47;;;;;;;30.71;51.72;97820.69;2089948;28;20512;-53
2023/07/25 04:29:26;;;;;;;20.15;5.03;;;;;;;30.68;52.23;97819.38;2090231;28;20503;-52
2023/07/25 04:30:26;;;;;;;14.18;5.70;;;;;;;30.72;51.77;97814.09;2088527;28;20125;-54
2023/07/25 04:31:27;;;;;;;24.10;6.57;;;;;;;30.71;52.12;97774.97;2090206;28;20103;-52
2023/07/25 04:32:29;;;;;;;23.10;6.57;;;;;;;30.73;51.73;97714.47;2087932;28;20059;-53
2023/07/25 04:33:30;;;;;;;18.55;6.40;;;;;;;30.73;52.09;97692.56;2089727;28;20063;-50
2023/07/25 04:34:30;;;;;;;24.17;7.63;;;;;;;30.69;51.67;97684.13;2090593;28;20063;-53
2023/07/25 04:35:33;;;;;;;15.00;5.32;;;;;;;30.69;51.55;97688.81;2088740;28;20045;-51
2023/07/25 04:36:33;;;;;;;14.35;5.63;;;;;;;30.65;52.06;97680.41;2090095;28;20683;-52
2023/07/25 04:37:35;;;;;;;15.98;5.43;;;;;;;30.66;52.00;97659.31;2091989;28;20059;-52
2023/07/25 04:38:36;;;;;;;15.55;6.03;;;;;;;30.64;51.70;97656.06;2086731;28;20056;-53
2023/07/25 04:39:38;;;;;;;18.52;5.68;;;;;;;30.65;51.64;97649.50;2080889;28;20124;-53
2023/07/25 04:40:38;;;;;;;18.48;6.13;;;;;;;30.65;51.98;97652.22;2082706;28;20161;-51
2023/07/25 04:41:40;;;;;;;19.88;7.15;;;;;;;30.64;52.04;97661.53;2082828;28;20423;-52
2023/07/25 04:42:41;;;;;;;14.35;5.05;;;;;;;30.61;51.52;97667.63;2082590;28;20045;-53
2023/07/25 04:43:44;;;;;;;16.98;4.70;;;;;;;30.63;51.91;97682.63;2088544;28;20559;-53
2023/07/25 04:44:45;;;;;;;13.77;5.63;;;;;;;30.63;51.51;97700.97;2088239;28;20349;-50
2023/07/25 04:45:46;;;;;;;18.08;5.95;;;;;;;30.62;51.38;97711.13;2088825;28;20049;-52
2023/07/25 04:46:48;;;;;;;17.15;7.72;;;;;;;30.65;51.76;97715.19;2089617;28;20174;-53